createdAt,value
2023-03-12T00:01:59.886Z,2.60
2023-03-12T00:05:00.675Z,2.60
2023-03-12T00:08:01.693Z,2.60
2023-03-12T00:11:26.911Z,2.60
2023-03-12T00:14:27.610Z,2.70
2023-03-12T00:17:30.457Z,2.70
2023-03-12T00:20:31.915Z,2.60
2023-03-12T00:23:33.125Z,2.60
2023-03-12T00:26:33.929Z,2.70
2023-03-12T00:29:35.633Z,2.60
2023-03-12T00:32:38.523Z,2.70
2023-03-12T00:35:39.649Z,2.60
2023-03-12T00:38:40.777Z,2.70
2023-03-12T00:41:41.552Z,2.70
2023-03-12T00:44:43.643Z,2.70
2023-03-12T00:47:44.675Z,2.70
2023-03-12T00:50:45.856Z,2.60
2023-03-12T00:53:47.712Z,2.70
2023-03-12T00:56:48.828Z,2.60
2023-03-12T00:59:49.990Z,2.70
2023-03-12T01:02:51.330Z,2.60
2023-03-12T01:05:54.919Z,2.70
2023-03-12T01:08:55.918Z,2.70
2023-03-12T01:11:56.874Z,2.70
2023-03-12T01:14:57.820Z,2.70
2023-03-12T01:17:59.060Z,2.70
2023-03-12T01:21:00.585Z,2.70
2023-03-12T01:24:01.727Z,2.70
2023-03-12T01:27:02.569Z,2.70
2023-03-12T01:30:05.364Z,2.70
2023-03-12T01:33:06.733Z,2.70
2023-03-12T01:36:22.203Z,2.70
2023-03-12T01:39:23.450Z,2.80
2023-03-12T01:42:24.142Z,2.80
2023-03-12T01:45:59.036Z,2.80
2023-03-12T01:49:29.798Z,2.80
2023-03-12T01:52:37.751Z,2.80
2023-03-12T01:55:40.302Z,2.80
2023-03-12T01:58:49.946Z,2.80
2023-03-12T02:01:51.639Z,2.80
2023-03-12T02:05:14.079Z,2.80
2023-03-12T02:08:17.850Z,2.80
2023-03-12T02:11:19.199Z,2.80
2023-03-12T02:14:21.059Z,2.80
2023-03-12T02:17:22.473Z,2.80
2023-03-12T02:20:36.844Z,2.90
2023-03-12T02:24:19.632Z,2.90
2023-03-12T02:27:23.184Z,2.90
2023-03-12T02:30:24.992Z,2.90
2023-03-12T02:33:26.418Z,3.00
2023-03-12T02:36:28.247Z,3.00
2023-03-12T02:39:29.315Z,3.00
2023-03-12T02:42:30.860Z,3.10
2023-03-12T02:45:34.270Z,3.00
2023-03-12T02:48:35.685Z,3.00
2023-03-12T02:51:36.749Z,3.00
2023-03-12T02:54:38.074Z,3.00
2023-03-12T02:57:40.191Z,3.00
2023-03-12T03:00:45.119Z,3.00
2023-03-12T03:03:47.003Z,3.00
2023-03-12T03:06:48.755Z,3.00
2023-03-12T03:09:49.826Z,3.00
2023-03-12T03:12:51.640Z,3.00
2023-03-12T03:15:53.023Z,3.10
2023-03-12T03:18:54.333Z,3.10
2023-03-12T03:21:55.771Z,3.00
2023-03-12T03:24:56.642Z,3.00
2023-03-12T03:27:57.647Z,3.10
2023-03-12T03:31:01.939Z,3.10
2023-03-12T03:34:06.451Z,3.10
2023-03-12T03:37:07.617Z,3.10
2023-03-12T03:40:12.454Z,3.10
2023-03-12T03:43:14.680Z,3.10
2023-03-12T03:46:17.007Z,3.10
2023-03-12T03:49:22.970Z,3.10
2023-03-12T03:52:24.102Z,3.10
2023-03-12T03:55:25.906Z,3.10
2023-03-12T03:58:26.840Z,3.10
2023-03-12T04:01:29.158Z,3.10
2023-03-12T04:04:31.668Z,3.10
2023-03-12T04:07:33.378Z,3.10
2023-03-12T04:10:34.958Z,3.10
2023-03-12T04:13:36.269Z,3.10
2023-03-12T04:16:37.722Z,3.10
2023-03-12T04:19:39.390Z,3.10
2023-03-12T04:22:41.226Z,3.10
2023-03-12T04:25:42.974Z,3.10
2023-03-12T04:28:44.321Z,3.10
2023-03-12T04:31:46.389Z,3.10
2023-03-12T04:34:47.583Z,3.10
2023-03-12T04:37:51.569Z,3.10
2023-03-12T04:41:14.213Z,3.10
2023-03-12T04:44:22.157Z,3.00
2023-03-12T04:47:23.443Z,3.00
2023-03-12T04:50:24.390Z,3.00
2023-03-12T04:53:26.051Z,3.00
2023-03-12T04:56:27.502Z,3.00
2023-03-12T04:59:28.906Z,3.00
2023-03-12T05:02:30.183Z,3.00
2023-03-12T05:05:31.026Z,3.00
2023-03-12T05:08:32.198Z,3.10
2023-03-12T05:11:33.611Z,3.10
2023-03-12T05:14:35.031Z,3.10
2023-03-12T05:17:36.211Z,3.10
2023-03-12T05:20:38.790Z,3.10
2023-03-12T05:23:42.722Z,3.00
2023-03-12T05:26:44.805Z,3.10
2023-03-12T05:29:52.007Z,3.10
2023-03-12T05:32:54.374Z,3.10
2023-03-12T05:35:55.988Z,3.10
2023-03-12T05:38:57.818Z,3.10
2023-03-12T05:42:01.157Z,3.10
2023-03-12T05:45:04.461Z,3.10
2023-03-12T05:48:06.142Z,3.10
2023-03-12T05:51:07.174Z,3.20
2023-03-12T05:54:08.408Z,3.20
2023-03-12T05:57:09.645Z,3.20
2023-03-12T06:00:15.182Z,3.30
2023-03-12T06:03:22.153Z,3.30
2023-03-12T06:06:23.780Z,3.30
2023-03-12T06:09:25.194Z,3.30
2023-03-12T06:12:27.052Z,3.40
2023-03-12T06:15:28.343Z,3.40
2023-03-12T06:18:29.487Z,3.50
2023-03-12T06:21:34.961Z,3.40
2023-03-12T06:24:37.925Z,3.40
2023-03-12T06:27:41.250Z,3.40
2023-03-12T06:30:41.890Z,3.40
2023-03-12T06:33:43.106Z,3.40
2023-03-12T06:36:44.069Z,3.40
2023-03-12T06:39:45.100Z,3.50
2023-03-12T06:42:45.874Z,3.50
2023-03-12T06:45:46.658Z,3.60
2023-03-12T06:48:48.046Z,3.90
2023-03-12T06:51:49.606Z,4.20
2023-03-12T06:54:50.605Z,4.30
2023-03-12T06:57:51.644Z,4.20
2023-03-12T07:00:54.135Z,4.20
2023-03-12T07:03:55.177Z,4.10
2023-03-12T07:06:56.474Z,4.10
2023-03-12T07:09:57.699Z,4.00
2023-03-12T07:12:58.435Z,4.00
2023-03-12T07:15:59.338Z,4.00
2023-03-12T07:19:00.095Z,4.00
2023-03-12T07:22:01.648Z,4.00
2023-03-12T07:25:03.007Z,4.10
2023-03-12T07:28:04.985Z,4.20
2023-03-12T07:31:06.685Z,4.40
2023-03-12T07:34:08.070Z,4.60
2023-03-12T07:37:09.062Z,4.50
2023-03-12T07:40:11.082Z,4.60
2023-03-12T07:43:12.952Z,4.80
2023-03-12T07:46:15.906Z,4.90
2023-03-12T07:49:16.904Z,4.80
2023-03-12T07:52:19.604Z,4.80
2023-03-12T07:55:20.847Z,5.00
2023-03-12T07:58:21.987Z,5.00
2023-03-12T08:01:23.294Z,5.00
2023-03-12T08:04:24.392Z,5.00
2023-03-12T08:07:25.773Z,4.90
2023-03-12T08:10:26.490Z,5.00
2023-03-12T08:13:28.315Z,5.20
2023-03-12T08:16:29.658Z,5.20
2023-03-12T08:19:31.196Z,5.30
2023-03-12T08:22:32.079Z,5.40
2023-03-12T08:25:33.450Z,5.50
2023-03-12T08:28:34.497Z,5.70
2023-03-12T08:31:35.749Z,5.90
2023-03-12T08:34:37.038Z,6.00
2023-03-12T08:37:38.141Z,6.10
2023-03-12T08:40:39.525Z,6.10
2023-03-12T08:43:40.511Z,6.20
2023-03-12T08:46:41.629Z,6.10
2023-03-12T08:49:42.463Z,6.00
2023-03-12T08:52:44.762Z,6.20
2023-03-12T08:55:46.149Z,6.20
2023-03-12T08:58:47.490Z,6.20
2023-03-12T09:01:48.564Z,6.30
2023-03-12T09:04:50.326Z,6.20
2023-03-12T09:07:51.361Z,6.30
2023-03-12T09:10:52.344Z,6.50
2023-03-12T09:14:49.943Z,6.80
2023-03-12T09:17:13.831Z,7.30
2023-03-12T09:20:14.847Z,7.40
2023-03-12T09:23:16.115Z,7.50
2023-03-12T09:26:17.329Z,7.40
2023-03-12T09:29:18.202Z,7.50
2023-03-12T09:32:18.896Z,7.60
2023-03-12T09:35:20.240Z,7.60
2023-03-12T09:38:21.182Z,7.70
2023-03-12T09:41:39.893Z,8.10
2023-03-12T09:44:47.342Z,8.20
2023-03-12T09:47:55.642Z,8.20
2023-03-12T09:50:57.022Z,8.40
2023-03-12T09:54:04.021Z,8.30
2023-03-12T09:57:14.750Z,8.00
2023-03-12T10:00:29.827Z,8.10
2023-03-12T10:04:03.793Z,7.90
2023-03-12T10:07:17.968Z,7.80
2023-03-12T10:11:09.706Z,8.10
2023-03-12T10:14:53.359Z,8.00
2023-03-12T10:18:35.486Z,7.70
2023-03-12T10:22:06.451Z,7.80
2023-03-12T10:25:40.439Z,7.80
2023-03-12T10:28:48.360Z,7.80
2023-03-12T10:32:11.140Z,7.90
2023-03-12T10:35:21.644Z,8.10
2023-03-12T10:38:30.383Z,8.40
2023-03-12T10:41:34.873Z,8.60
2023-03-12T10:44:36.278Z,9.00
2023-03-12T10:47:43.691Z,9.00
2023-03-12T10:51:05.247Z,8.90
2023-03-12T10:54:44.895Z,8.60
2023-03-12T10:57:45.733Z,8.50
2023-03-12T11:01:01.284Z,8.30
2023-03-12T11:04:29.861Z,8.30
2023-03-12T11:07:35.648Z,8.60
2023-03-12T11:10:45.685Z,8.80
2023-03-12T11:13:46.993Z,8.70
2023-03-12T11:16:48.930Z,8.90
2023-03-12T11:19:50.420Z,8.70
2023-03-12T11:22:51.669Z,8.80
2023-03-12T11:26:11.478Z,9.00
2023-03-12T11:29:40.529Z,9.10
2023-03-12T11:32:49.152Z,9.10
2023-03-12T11:36:09.759Z,9.00
2023-03-12T11:39:58.737Z,9.00
2023-03-12T11:43:41.699Z,9.20
2023-03-12T11:47:05.449Z,9.30
2023-03-12T11:50:39.592Z,9.20
2023-03-12T11:53:58.762Z,9.30
2023-03-12T11:57:52.245Z,9.30
2023-03-12T12:01:27.076Z,9.40
2023-03-12T12:04:42.490Z,9.30
2023-03-12T12:07:54.981Z,9.50
2023-03-12T12:11:24.850Z,9.60
2023-03-12T12:14:33.839Z,10.20
2023-03-12T12:18:20.299Z,11.50
2023-03-12T12:22:16.857Z,12.20
2023-03-12T12:25:58.048Z,11.90
2023-03-12T12:29:19.249Z,12.40
2023-03-12T12:32:54.997Z,12.30
2023-03-12T12:35:57.075Z,12.30
2023-03-12T12:39:21.324Z,11.20
2023-03-12T12:42:31.755Z,11.00
2023-03-12T12:45:32.862Z,11.40
2023-03-12T12:48:58.591Z,11.00
2023-03-12T12:52:07.330Z,11.10
2023-03-12T12:55:29.177Z,11.70
2023-03-12T12:58:58.124Z,11.30
2023-03-12T13:02:02.789Z,11.90
2023-03-12T13:05:03.714Z,15.50
2023-03-12T13:08:08.860Z,14.80
2023-03-12T13:11:20.362Z,12.40
2023-03-12T13:14:36.105Z,15.80
2023-03-12T13:17:59.896Z,15.30
2023-03-12T13:21:23.173Z,16.40
2023-03-12T13:24:39.633Z,14.60
2023-03-12T13:27:44.760Z,14.20
2023-03-12T13:30:49.242Z,13.00
2023-03-12T13:33:59.982Z,11.60
2023-03-12T13:37:03.681Z,14.10
2023-03-12T13:40:37.964Z,13.90
2023-03-12T13:43:39.120Z,13.00
2023-03-12T13:46:42.059Z,11.50
2023-03-12T13:50:13.636Z,11.00
2023-03-12T13:53:26.226Z,10.60
2023-03-12T13:56:31.858Z,10.10
2023-03-12T13:59:33.576Z,9.80
2023-03-12T14:02:43.166Z,9.70
2023-03-12T14:06:11.705Z,9.40
2023-03-12T14:09:24.641Z,9.50
2023-03-12T14:13:33.983Z,9.40
2023-03-12T14:17:02.570Z,9.10
2023-03-12T14:20:21.801Z,9.20
2023-03-12T14:23:27.509Z,9.10
2023-03-12T14:26:33.938Z,9.30
2023-03-12T14:29:41.486Z,9.40
2023-03-12T14:32:46.151Z,9.50
2023-03-12T14:36:17.062Z,9.90
2023-03-12T14:39:46.457Z,13.50
2023-03-12T14:42:48.156Z,11.20
2023-03-12T14:45:57.531Z,10.40
2023-03-12T14:48:58.731Z,10.30
2023-03-12T14:51:59.515Z,10.10
2023-03-12T14:55:15.511Z,9.80
2023-03-12T14:58:20.708Z,9.60
2023-03-12T15:01:34.554Z,9.50
2023-03-12T15:04:35.836Z,9.40
2023-03-12T15:07:39.681Z,9.30
2023-03-12T15:10:43.179Z,9.30
2023-03-12T15:13:44.725Z,9.40
2023-03-12T15:16:46.614Z,9.60
2023-03-12T15:19:49.531Z,9.60
2023-03-12T15:22:52.421Z,9.80
2023-03-12T15:26:29.367Z,14.10
2023-03-12T15:29:31.217Z,13.40
2023-03-12T15:32:32.480Z,11.30
2023-03-12T15:35:33.584Z,10.40
2023-03-12T15:38:38.448Z,11.30
2023-03-12T15:41:50.558Z,16.00
2023-03-12T15:44:59.842Z,16.00
2023-03-12T15:48:01.302Z,13.00
2023-03-12T15:51:02.530Z,12.40
2023-03-12T15:54:17.516Z,15.10
2023-03-12T15:57:26.451Z,14.70
2023-03-12T16:00:45.023Z,12.80
2023-03-12T16:03:46.332Z,11.20
2023-03-12T16:06:49.251Z,10.70
2023-03-12T16:09:50.416Z,10.30
2023-03-12T16:13:01.446Z,10.10
2023-03-12T16:16:02.640Z,9.90
2023-03-12T16:19:04.166Z,10.00
2023-03-12T16:22:05.299Z,10.10
2023-03-12T16:25:11.106Z,9.90
2023-03-12T16:28:16.975Z,9.70
2023-03-12T16:31:18.241Z,9.60
2023-03-12T16:34:19.367Z,9.60
2023-03-12T16:37:20.597Z,9.60
2023-03-12T16:40:32.965Z,9.60
2023-03-12T16:43:37.209Z,9.60
2023-03-12T16:46:38.799Z,9.50
2023-03-12T16:49:39.956Z,9.50
2023-03-12T16:52:41.086Z,9.40
2023-03-12T16:55:59.984Z,9.30
2023-03-12T16:59:08.598Z,9.20
2023-03-12T17:02:18.148Z,9.10
2023-03-12T17:05:19.166Z,9.00
2023-03-12T17:08:20.229Z,8.90
2023-03-12T17:11:29.373Z,8.70
2023-03-12T17:14:31.868Z,8.70
2023-03-12T17:17:33.163Z,8.60
2023-03-12T17:20:36.273Z,8.60
2023-03-12T17:23:37.185Z,8.60
2023-03-12T17:26:37.939Z,8.60
2023-03-12T17:29:39.027Z,8.40
2023-03-12T17:32:39.842Z,8.20
2023-03-12T17:35:42.452Z,8.30
2023-03-12T17:38:43.256Z,8.30
2023-03-12T17:41:44.196Z,8.40
2023-03-12T17:44:44.971Z,8.30
2023-03-12T17:47:46.268Z,8.30
2023-03-12T17:50:47.494Z,8.20
2023-03-12T17:53:48.628Z,8.30
2023-03-12T17:56:49.900Z,8.20
2023-03-12T17:59:51.735Z,8.10
2023-03-12T18:02:52.766Z,8.10
2023-03-12T18:05:54.008Z,8.20
2023-03-12T18:08:54.745Z,8.10
2023-03-12T18:11:55.616Z,8.10
2023-03-12T18:14:56.405Z,8.30
2023-03-12T18:17:58.863Z,8.20
2023-03-12T18:20:59.875Z,8.20
2023-03-12T18:24:11.782Z,8.00
2023-03-12T18:27:15.049Z,7.80
2023-03-12T18:30:15.913Z,7.70
2023-03-12T18:33:17.276Z,7.70
2023-03-12T18:36:18.210Z,7.60
2023-03-12T18:39:19.862Z,7.60
2023-03-12T18:42:20.823Z,7.40
2023-03-12T18:45:21.421Z,7.00
2023-03-12T18:48:22.854Z,6.90
2023-03-12T18:51:23.645Z,7.10
2023-03-12T18:54:24.897Z,7.30
2023-03-12T18:57:26.141Z,7.60
2023-03-12T19:00:27.018Z,7.70
2023-03-12T19:03:27.774Z,7.70
2023-03-12T19:06:47.861Z,7.70
2023-03-12T19:09:50.835Z,7.60
2023-03-12T19:12:53.878Z,7.50
2023-03-12T19:16:00.404Z,7.60
2023-03-12T19:19:01.711Z,7.70
2023-03-12T19:22:02.648Z,7.80
2023-03-12T19:25:04.128Z,7.90
2023-03-12T19:28:05.395Z,8.00
2023-03-12T19:31:12.163Z,8.00
2023-03-12T19:34:13.123Z,7.90
2023-03-12T19:37:13.807Z,8.00
2023-03-12T19:40:14.654Z,8.00
2023-03-12T19:43:15.761Z,8.00
2023-03-12T19:46:17.074Z,8.00
2023-03-12T19:49:18.140Z,7.90
2023-03-12T19:52:19.988Z,7.90
2023-03-12T19:55:21.098Z,7.80
2023-03-12T19:58:22.290Z,7.70
2023-03-12T20:01:23.133Z,7.70
2023-03-12T20:04:24.078Z,7.70
2023-03-12T20:07:25.056Z,7.70
2023-03-12T20:10:27.863Z,7.60
2023-03-12T20:13:29.001Z,7.50
2023-03-12T20:16:29.874Z,7.40
2023-03-12T20:19:30.991Z,7.40
2023-03-12T20:22:36.019Z,7.50
2023-03-12T20:25:41.292Z,7.50
2023-03-12T20:28:42.694Z,7.50
2023-03-12T20:31:43.844Z,7.40
2023-03-12T20:34:45.095Z,7.50
2023-03-12T20:37:46.296Z,7.50
2023-03-12T20:40:46.945Z,7.70
2023-03-12T20:43:47.772Z,7.70
2023-03-12T20:46:48.613Z,7.80
2023-03-12T20:49:49.784Z,7.70
2023-03-12T20:52:50.713Z,7.70
2023-03-12T20:55:51.638Z,7.70
2023-03-12T20:58:52.518Z,7.70
2023-03-12T21:01:53.367Z,7.70
2023-03-12T21:04:54.150Z,7.80
2023-03-12T21:07:58.270Z,7.80
2023-03-12T21:10:59.221Z,7.80
2023-03-12T21:14:00.515Z,7.80
2023-03-12T21:17:01.848Z,7.70
2023-03-12T21:20:09.704Z,7.70
2023-03-12T21:23:11.801Z,7.60
2023-03-12T21:26:12.981Z,7.40
2023-03-12T21:29:14.030Z,7.30
2023-03-12T21:32:14.626Z,7.40
2023-03-12T21:35:15.529Z,7.30
2023-03-12T21:38:16.276Z,7.30
2023-03-12T21:41:19.802Z,7.20
2023-03-12T21:44:20.753Z,7.10
2023-03-12T21:47:21.794Z,7.00
2023-03-12T21:50:23.190Z,7.00
2023-03-12T21:53:24.328Z,7.00
2023-03-12T21:56:28.328Z,6.90
2023-03-12T21:59:29.953Z,6.80
2023-03-12T22:02:31.813Z,6.80
2023-03-12T22:05:32.767Z,6.70
2023-03-12T22:08:34.906Z,6.60
2023-03-12T22:11:35.825Z,6.60
2023-03-12T22:14:36.569Z,6.80
2023-03-12T22:17:37.401Z,6.60
2023-03-12T22:20:38.625Z,6.60
2023-03-12T22:23:39.504Z,6.60
2023-03-12T22:26:40.295Z,6.80
2023-03-12T22:29:42.826Z,7.00
2023-03-12T22:32:43.661Z,7.00
2023-03-12T22:35:48.360Z,6.90
2023-03-12T22:38:50.113Z,6.80
2023-03-12T22:41:51.221Z,6.60
2023-03-12T22:44:51.915Z,6.40
2023-03-12T22:47:52.653Z,6.40
2023-03-12T22:50:54.276Z,6.40
2023-03-12T22:53:55.077Z,6.40
2023-03-12T22:56:56.288Z,6.50
2023-03-12T22:59:57.096Z,6.50
2023-03-12T23:02:58.258Z,6.40
2023-03-12T23:06:00.453Z,6.30
2023-03-12T23:09:01.681Z,6.40
2023-03-12T23:12:02.901Z,6.60
2023-03-12T23:15:04.131Z,6.50
2023-03-12T23:18:05.237Z,6.70
2023-03-12T23:21:10.760Z,6.70
2023-03-12T23:24:11.985Z,6.60
2023-03-12T23:27:12.836Z,6.70
2023-03-12T23:30:14.470Z,6.80
2023-03-12T23:33:15.550Z,6.70
2023-03-12T23:36:21.387Z,6.80
2023-03-12T23:39:22.250Z,6.70
2023-03-12T23:42:23.812Z,6.80
2023-03-12T23:45:25.075Z,6.90
2023-03-12T23:48:29.048Z,7.00
2023-03-12T23:51:33.051Z,7.00
2023-03-12T23:54:33.957Z,6.50
2023-03-12T23:57:34.543Z,6.20
